Main page
Satellite images 10-day forecastsClimateMarine weather Cyclones Lightning AirportsFAQ Newsletter About
Weather : Europe Africa North America South America Asia Australia-Oceania Others
Languages Contact

Longyearbyen, Longyear,

Svalbard Airport

latitude: Norway, longitude: 78-15N, elevation: 015-28E m


METAR: ENSB 262150Z 24022KT 9999 FEW031 BKN055 03/M03 Q1002 RMK WIND 1400FT 22033G45KT
TAF: ENSB 2621/2721 22018KT 9999 -RASN BKN020 TEMPO 2621/2624 24025G35KT 4000 -SNRA VV014 BECMG 2709/2712 15008KT

Time: 23:25 (22:25 UTC)

Current weather observation

The report was made 35 minutes ago, at 21:50 UTC
Wind 22 kt from the West/Southwest
Temperature 3°C
Humidity 65%
Pressure 1002 hPa
Visibility 10 km or more
Few clouds at a height of 3100 ft
Broken clouds at a height of 5500 ft

Change units

Forecast

Forecast valid from 26 at 21 UTC to 27 at 21 UTC
Wind 18 kt from the Southwest
Visibility 10 km or more
Broken clouds at a height of 2000 ft
light rain, snow
Temporary
from 26 at 21 UTC to 26 at 24 UTC
Wind 25 kt from the West/Southwest with gusts up to 35 kt
Visibility: 4000 m
at a height of 1400 ft
light snow, rain
Becoming
from 27 at 09 UTC to 27 at 12 UTC
Wind 8 kt from the South/Southeast
The information on this site is subject to a disclaimer
Weather : Europe Africa North America South America Asia Australia-Oceania Others
Satellite images 10-day forecastsClimateMarine weather Cyclones Lightning AirportsFAQ Languages Contact Newsletter About